Time;durP1;ratioP1;P1;durP2;ratioP2;P2;SDS_P1;SDS_P2;PMS_P1;PMS_P2;Temp;Humidity;BMP_temperature;BMP_pressure;BME280_temperature;BME280_humidity;BME280_pressure;Samples;Min_cycle;Max_cycle;Signal;HPM_P1;HPM_P2
2022/03/05 00:00:32;;;;;;;18.42;8.75;;;2.60;64.20;;;;;;9175275;19;20018;-66
2022/03/05 00:03:37;;;;;;;18.70;8.85;;;2.60;64.20;;;;;;9195507;19;20010;-67
2022/03/05 00:06:42;;;;;;;20.35;8.82;;;2.50;64.20;;;;;;9194274;19;20483;-66
2022/03/05 00:09:48;;;;;;;23.70;9.85;;;2.50;64.20;;;;;;9194451;19;20032;-66
2022/03/05 00:12:55;;;;;;;21.60;9.20;;;2.50;64.20;;;;;;9194426;19;20022;-64
2022/03/05 00:16:00;;;;;;;21.70;8.23;;;2.50;64.20;;;;;;9197008;19;20013;-67
2022/03/05 00:19:05;;;;;;;22.35;8.88;;;2.50;64.20;;;;;;9194681;19;20021;-65
2022/03/05 00:22:11;;;;;;;25.98;9.32;;;2.40;64.20;;;;;;9193649;19;20018;-65
2022/03/05 00:25:16;;;;;;;17.88;8.95;;;2.40;64.20;;;;;;9193486;19;20019;-66
2022/03/05 00:28:24;;;;;;;17.88;8.48;;;2.40;64.20;;;;;;9187776;19;20367;-66
2022/03/05 00:31:29;;;;;;;25.48;10.50;;;2.40;64.30;;;;;;9193272;19;20033;-64
2022/03/05 00:34:34;;;;;;;17.10;8.45;;;2.40;64.30;;;;;;9194507;19;20022;-63
2022/03/05 00:37:41;;;;;;;17.33;9.20;;;2.30;64.30;;;;;;9194410;19;20015;-62
2022/03/05 00:40:46;;;;;;;20.27;9.23;;;2.30;64.30;;;;;;9190809;19;20485;-64
2022/03/05 00:43:53;;;;;;;17.17;8.73;;;2.30;64.30;;;;;;9191570;19;20021;-65
2022/03/05 00:46:59;;;;;;;17.38;7.90;;;2.30;64.30;;;;;;9193804;19;20029;-65
2022/03/05 00:50:04;;;;;;;19.70;9.20;;;2.20;64.30;;;;;;9191636;19;20018;-65
2022/03/05 00:53:11;;;;;;;21.85;9.32;;;2.20;64.40;;;;;;9192644;19;20063;-64
2022/03/05 00:56:16;;;;;;;19.65;9.10;;;2.20;64.40;;;;;;9194915;19;20014;-64
2022/03/05 00:59:23;;;;;;;20.70;9.32;;;2.20;64.40;;;;;;9193971;19;20355;-65
2022/03/05 01:02:30;;;;;;;17.70;9.32;;;2.20;64.50;;;;;;9192778;19;20022;-65
2022/03/05 01:05:36;;;;;;;20.33;9.45;;;2.10;64.40;;;;;;9189761;19;20015;-64
2022/03/05 01:08:41;;;;;;;22.25;9.77;;;2.10;64.40;;;;;;9192761;19;20049;-64
2022/03/05 01:11:46;;;;;;;28.15;9.80;;;2.10;65.10;;;;;;9192120;19;20029;-64
2022/03/05 01:14:54;;;;;;;20.17;8.98;;;2.10;64.50;;;;;;9179712;19;20022;-64
2022/03/05 01:17:59;;;;;;;18.60;9.07;;;2.00;64.50;;;;;;9184824;19;20497;-66
2022/03/05 01:21:04;;;;;;;23.50;9.65;;;2.00;64.50;;;;;;9184098;19;20011;-65
2022/03/05 01:24:09;;;;;;;19.52;8.85;;;2.00;64.60;;;;;;9179994;19;20018;-65
2022/03/05 01:27:14;;;;;;;18.48;9.63;;;1.90;64.50;;;;;;9178670;19;20022;-65
2022/03/05 01:30:22;;;;;;;19.92;9.30;;;1.90;64.60;;;;;;9183015;19;20022;-64
2022/03/05 01:33:27;;;;;;;23.38;10.07;;;1.90;64.60;;;;;;9181598;19;20530;-66
2022/03/05 01:36:32;;;;;;;20.05;9.63;;;1.90;64.60;;;;;;9182479;19;20052;-66
2022/03/05 01:39:38;;;;;;;21.60;9.52;;;1.90;64.60;;;;;;9184072;19;20017;-64
2022/03/05 01:42:43;;;;;;;19.85;9.27;;;1.80;64.60;;;;;;9184249;19;20017;-66
2022/03/05 01:45:51;;;;;;;23.05;9.10;;;1.80;64.70;;;;;;9181197;19;20022;-63
2022/03/05 01:48:56;;;;;;;23.88;9.32;;;1.80;64.70;;;;;;9180832;19;20476;-65
2022/03/05 01:52:01;;;;;;;23.15;10.68;;;1.70;64.70;;;;;;9180263;19;20020;-65
2022/03/05 01:55:07;;;;;;;22.30;9.25;;;1.70;64.70;;;;;;9183698;19;20023;-65
2022/03/05 01:58:13;;;;;;;23.13;9.40;;;1.70;64.70;;;;;;9183421;19;20017;-66
2022/03/05 02:01:23;;;;;;;21.52;9.25;;;1.70;64.80;;;;;;9179521;19;20015;-65
2022/03/05 02:04:28;;;;;;;18.95;8.35;;;1.70;64.80;;;;;;9180280;19;20010;-65
2022/03/05 02:07:34;;;;;;;17.77;8.10;;;1.60;64.80;;;;;;9180804;19;20018;-65
2022/03/05 02:10:39;;;;;;;20.70;10.25;;;1.60;64.80;;;;;;9182786;19;20356;-64
2022/03/05 02:13:45;;;;;;;25.00;10.30;;;1.60;64.80;;;;;;9183005;19;20341;-64
2022/03/05 02:16:52;;;;;;;21.35;9.55;;;1.60;64.90;;;;;;9183153;19;20018;-66
2022/03/05 02:19:58;;;;;;;21.73;8.93;;;1.60;64.90;;;;;;9181382;19;20030;-64
2022/03/05 02:23:05;;;;;;;19.17;8.43;;;1.60;64.90;;;;;;9177686;19;20018;-64
2022/03/05 02:26:11;;;;;;;21.13;9.63;;;1.60;64.90;;;;;;9178173;19;20589;-63
2022/03/05 02:29:16;;;;;;;18.73;9.30;;;1.50;64.90;;;;;;9175173;19;20002;-64
2022/03/05 02:32:21;;;;;;;19.10;8.52;;;1.50;64.90;;;;;;9179630;19;20881;-65
2022/03/05 02:35:26;;;;;;;18.25;8.52;;;1.50;64.90;;;;;;9182447;19;20353;-65
2022/03/05 02:38:34;;;;;;;19.27;8.75;;;1.50;65.00;;;;;;9182279;19;20027;-65
2022/03/05 02:41:39;;;;;;;16.77;8.73;;;1.50;65.00;;;;;;9179459;19;20010;-65
2022/03/05 02:44:45;;;;;;;18.45;8.75;;;1.50;65.00;;;;;;9177514;19;20022;-63
2022/03/05 02:47:51;;;;;;;24.48;9.75;;;1.40;65.00;;;;;;9178215;19;20872;-65
2022/03/05 02:50:56;;;;;;;23.90;9.38;;;1.40;65.00;;;;;;9180239;19;20022;-64
2022/03/05 02:54:04;;;;;;;22.25;8.30;;;1.40;65.00;;;;;;9179019;19;20029;-63
2022/03/05 02:57:09;;;;;;;19.95;8.98;;;1.40;65.10;;;;;;9181426;19;20014;-58
2022/03/05 03:00:15;;;;;;;27.67;9.55;;;1.30;65.10;;;;;;9177332;19;20110;-60
2022/03/05 03:03:21;;;;;;;19.50;9.05;;;1.30;65.20;;;;;;9177367;19;20040;-60
2022/03/05 03:06:26;;;;;;;18.95;8.57;;;1.30;65.20;;;;;;9179463;19;20014;-60
2022/03/05 03:09:34;;;;;;;21.90;9.82;;;1.30;65.20;;;;;;9177405;19;20022;-61
2022/03/05 03:12:40;;;;;;;17.63;8.85;;;1.30;65.20;;;;;;9178866;19;20010;-61
2022/03/05 03:15:45;;;;;;;18.70;8.38;;;1.30;65.20;;;;;;9180859;19;20010;-60
2022/03/05 03:18:50;;;;;;;18.75;8.15;;;1.20;65.10;;;;;;9176756;19;20054;-62
2022/03/05 03:21:55;;;;;;;19.75;8.65;;;1.20;65.10;;;;;;9177762;19;20462;-60
2022/03/05 03:25:03;;;;;;;21.58;9.70;;;1.20;65.10;;;;;;9178247;19;20055;-60
2022/03/05 03:28:08;;;;;;;23.38;10.07;;;1.20;65.10;;;;;;9172363;19;20092;-60
2022/03/05 03:31:13;;;;;;;23.55;8.77;;;1.20;65.20;;;;;;9176803;19;20015;-59
2022/03/05 03:34:18;;;;;;;19.70;8.45;;;1.20;65.20;;;;;;9178659;19;20030;-58
2022/03/05 03:37:36;;;;;;;23.63;9.18;;;1.20;65.20;;;;;;9178101;19;20031;-64
2022/03/05 03:40:43;;;;;;;20.00;9.52;;;1.10;65.20;;;;;;9176649;19;20014;-60
2022/03/05 03:43:48;;;;;;;18.08;8.23;;;1.10;65.30;;;;;;9176522;19;20030;-62
2022/03/05 03:46:54;;;;;;;23.80;9.07;;;1.10;65.30;;;;;;9176559;19;20019;-59
2022/03/05 03:49:59;;;;;;;22.77;9.18;;;1.10;65.30;;;;;;9175376;19;20022;-62
2022/03/05 03:53:05;;;;;;;19.35;9.00;;;1.10;65.40;;;;;;9176939;19;20047;-61
2022/03/05 03:56:12;;;;;;;19.40;8.82;;;1.10;65.40;;;;;;9173705;19;20018;-62
2022/03/05 03:59:20;;;;;;;21.02;9.20;;;1.00;65.40;;;;;;9174764;19;20026;-61
2022/03/05 04:02:25;;;;;;;19.38;9.50;;;1.00;65.50;;;;;;9172023;19;20102;-60
2022/03/05 04:05:31;;;;;;;24.02;9.95;;;1.10;65.50;;;;;;9172606;19;20029;-61
2022/03/05 04:08:42;;;;;;;19.80;9.05;;;1.00;65.40;;;;;;9172635;19;20014;-60
2022/03/05 04:11:49;;;;;;;19.35;8.70;;;1.00;65.40;;;;;;9172723;19;20451;-61
2022/03/05 04:14:55;;;;;;;17.48;7.97;;;1.00;65.50;;;;;;9172564;19;20010;-60
2022/03/05 04:18:00;;;;;;;22.83;9.25;;;1.00;65.50;;;;;;9172748;19;20019;-60
2022/03/05 04:21:06;;;;;;;18.65;9.20;;;0.90;65.50;;;;;;9173207;19;20513;-60
2022/03/05 04:24:11;;;;;;;23.02;9.55;;;0.90;65.40;;;;;;9172096;19;20021;-59
2022/03/05 04:27:19;;;;;;;25.05;9.45;;;0.90;65.50;;;;;;9168498;19;20026;-59
2022/03/05 04:30:24;;;;;;;19.48;9.40;;;0.90;65.50;;;;;;9171394;19;20048;-63
2022/03/05 04:33:29;;;;;;;21.25;9.20;;;0.90;65.50;;;;;;9172114;19;20086;-59
2022/03/05 04:36:34;;;;;;;23.83;8.82;;;0.80;65.50;;;;;;9171373;19;20018;-60
2022/03/05 04:39:40;;;;;;;19.25;9.43;;;0.90;65.60;;;;;;9172960;19;20033;-62
2022/03/05 04:42:47;;;;;;;22.80;9.57;;;0.90;65.60;;;;;;9174576;19;20018;-61
2022/03/05 04:45:52;;;;;;;22.33;9.65;;;0.90;65.70;;;;;;9173266;19;20018;-63
2022/03/05 04:48:58;;;;;;;20.00;9.30;;;0.80;65.60;;;;;;9174880;19;20368;-59
2022/03/05 04:52:03;;;;;;;25.10;9.93;;;0.80;65.70;;;;;;9178344;19;20018;-60
2022/03/05 04:55:09;;;;;;;22.73;9.82;;;0.80;65.70;;;;;;9178640;19;20030;-60
2022/03/05 04:58:17;;;;;;;20.77;8.98;;;0.80;65.70;;;;;;9180090;19;20475;-61
2022/03/05 05:01:22;;;;;;;24.92;10.00;;;0.80;65.70;;;;;;9181192;19;20018;-61
2022/03/05 05:04:28;;;;;;;24.27;9.73;;;0.80;65.70;;;;;;9182930;19;20022;-61
2022/03/05 05:07:33;;;;;;;19.90;9.02;;;0.80;65.70;;;;;;9181180;19;20025;-60
2022/03/05 05:10:38;;;;;;;24.60;9.45;;;0.80;65.70;;;;;;9177997;19;20498;-59
2022/03/05 05:13:46;;;;;;;23.40;10.25;;;0.80;65.70;;;;;;9178135;19;20660;-60
2022/03/05 05:16:54;;;;;;;22.80;9.65;;;0.80;65.70;;;;;;9178939;19;20010;-59
2022/03/05 05:19:59;;;;;;;27.17;10.10;;;0.70;65.70;;;;;;9181411;19;20042;-59
2022/03/05 05:23:04;;;;;;;21.15;9.82;;;0.70;65.70;;;;;;9180220;19;20054;-60
2022/03/05 05:26:09;;;;;;;21.85;9.95;;;0.70;65.80;;;;;;9179918;19;20018;-60
2022/03/05 05:29:16;;;;;;;29.17;10.50;;;0.70;65.80;;;;;;9173316;19;20368;-60
2022/03/05 05:32:42;;;;;;;24.67;10.35;;;0.70;65.80;;;;;;9182199;19;20420;-60
2022/03/05 05:35:47;;;;;;;21.92;9.50;;;0.70;65.80;;;;;;9180103;19;20023;-59
2022/03/05 05:38:52;;;;;;;28.40;12.60;;;0.70;65.90;;;;;;9177442;19;20052;-60
2022/03/05 05:41:57;;;;;;;22.42;9.40;;;0.70;65.90;;;;;;9177690;19;20026;-60
2022/03/05 05:45:06;;;;;;;26.73;10.32;;;0.60;65.80;;;;;;9178357;19;20029;-58
2022/03/05 05:48:11;;;;;;;27.70;10.80;;;0.60;65.90;;;;;;9177876;19;20046;-61
2022/03/05 05:51:17;;;;;;;22.67;10.32;;;0.60;65.80;;;;;;9179082;19;20081;-59
2022/03/05 05:54:23;;;;;;;23.58;10.13;;;0.60;65.80;;;;;;9179747;19;20021;-59
2022/03/05 05:57:28;;;;;;;31.90;10.50;;;0.60;65.90;;;;;;9176597;19;20052;-60
2022/03/05 06:00:36;;;;;;;25.60;11.43;;;0.60;65.90;;;;;;9175117;19;20014;-60
2022/03/05 06:03:42;;;;;;;25.67;10.77;;;0.60;66.00;;;;;;9175489;19;20019;-60
2022/03/05 06:06:47;;;;;;;31.65;10.75;;;0.60;66.00;;;;;;9176079;19;20467;-60
2022/03/05 06:09:52;;;;;;;27.08;11.25;;;0.60;66.00;;;;;;9176921;19;20408;-64
2022/03/05 06:12:57;;;;;;;24.80;11.10;;;0.50;66.00;;;;;;9179876;19;20053;-62
2022/03/05 06:16:05;;;;;;;28.70;12.25;;;0.50;66.00;;;;;;9174048;19;20018;-59
2022/03/05 06:19:11;;;;;;;30.75;11.13;;;0.50;66.00;;;;;;9170643;19;20029;-62
2022/03/05 06:22:15;;;;;;;31.02;11.27;;;0.50;66.00;;;;;;9172773;19;20018;-60
2022/03/05 06:25:20;;;;;;;33.38;12.55;;;0.50;66.00;;;;;;9170842;19;20010;-59
2022/03/05 06:28:26;;;;;;;28.27;12.65;;;0.50;66.00;;;;;;9170818;19;20023;-59
2022/03/05 06:31:33;;;;;;;27.17;11.23;;;0.50;66.10;;;;;;9168628;19;20724;-63
2022/03/05 06:34:38;;;;;;;26.73;11.07;;;0.50;66.10;;;;;;9177419;19;20483;-59
2022/03/05 06:37:44;;;;;;;24.48;11.60;;;0.40;66.00;;;;;;9176310;19;20033;-60
2022/03/05 06:40:49;;;;;;;30.15;12.02;;;0.40;66.10;;;;;;9173987;19;20022;-59
2022/03/05 06:43:54;;;;;;;30.77;11.27;;;0.50;66.20;;;;;;9175710;19;20021;-59
2022/03/05 06:47:02;;;;;;;29.42;12.60;;;0.40;66.10;;;;;;9177745;19;20046;-61
2022/03/05 06:50:08;;;;;;;32.17;12.13;;;0.40;66.20;;;;;;9175183;19;20343;-60
2022/03/05 06:53:13;;;;;;;31.40;13.30;;;0.40;66.20;;;;;;9176069;19;20030;-60
2022/03/05 06:56:18;;;;;;;32.30;12.80;;;0.40;66.20;;;;;;9179888;19;20018;-60
2022/03/05 06:59:24;;;;;;;31.38;12.48;;;0.40;66.20;;;;;;9175182;19;20662;-61
2022/03/05 07:02:32;;;;;;;42.38;12.85;;;0.40;66.30;;;;;;9176207;19;20023;-60
2022/03/05 07:05:37;;;;;;;28.77;11.32;;;0.40;66.30;;;;;;9176210;19;20483;-58
2022/03/05 07:08:42;;;;;;;32.25;13.57;;;0.40;66.30;;;;;;9175341;19;20028;-59
2022/03/05 07:11:47;;;;;;;29.23;12.50;;;0.40;66.40;;;;;;9173524;19;20681;-58
2022/03/05 07:14:52;;;;;;;33.85;13.57;;;0.40;66.40;;;;;;9176580;19;20022;-60
2022/03/05 07:17:59;;;;;;;33.42;14.45;;;0.40;66.50;;;;;;9175892;19;20042;-58
2022/03/05 07:21:05;;;;;;;30.67;12.27;;;0.40;66.50;;;;;;9173930;19;20018;-58
2022/03/05 07:24:10;;;;;;;33.72;13.25;;;0.50;66.60;;;;;;9175533;19;20337;-59
2022/03/05 07:27:15;;;;;;;31.05;13.55;;;0.50;66.60;;;;;;9170358;19;20022;-60
2022/03/05 07:30:20;;;;;;;36.08;13.90;;;0.50;66.70;;;;;;9173797;19;20050;-60
2022/03/05 07:33:28;;;;;;;31.63;12.80;;;0.50;66.70;;;;;;9175986;19;20029;-60
2022/03/05 07:36:33;;;;;;;37.05;14.90;;;0.60;66.90;;;;;;9176917;19;20015;-61
2022/03/05 07:39:38;;;;;;;38.83;14.13;;;0.70;67.00;;;;;;9175304;19;20884;-60
2022/03/05 07:42:44;;;;;;;37.10;14.27;;;0.70;67.00;;;;;;9173833;19;20018;-60
2022/03/05 07:45:49;;;;;;;38.05;14.55;;;0.80;67.10;;;;;;9175930;19;20010;-59
2022/03/05 07:48:57;;;;;;;34.85;13.80;;;0.90;67.10;;;;;;9173579;19;20018;-61
2022/03/05 07:52:02;;;;;;;30.77;12.73;;;1.00;67.20;;;;;;9173386;19;20022;-61
2022/03/05 07:55:08;;;;;;;34.05;13.52;;;1.10;67.30;;;;;;9174547;19;20906;-60
2022/03/05 07:58:13;;;;;;;36.55;15.15;;;1.20;67.30;;;;;;9170711;19;20047;-59
2022/03/05 08:01:18;;;;;;;38.00;15.15;;;1.30;67.40;;;;;;9175037;19;20022;-60
2022/03/05 08:04:25;;;;;;;38.90;15.27;;;1.50;67.50;;;;;;9174378;19;20525;-63
2022/03/05 08:07:50;;;;;;;35.38;13.25;;;1.60;67.50;;;;;;9169296;19;20031;-62
2022/03/05 08:10:56;;;;;;;33.40;13.98;;;1.80;67.50;;;;;;9170734;19;20018;-63
2022/03/05 08:14:01;;;;;;;31.52;13.70;;;1.90;67.50;;;;;;9170593;19;20014;-60
2022/03/05 08:17:06;;;;;;;34.63;13.90;;;2.10;67.40;;;;;;9173446;19;20018;-61
2022/03/05 08:20:14;;;;;;;33.97;14.30;;;2.20;67.40;;;;;;9172715;19;20471;-61
2022/03/05 08:23:19;;;;;;;41.35;14.13;;;2.30;67.40;;;;;;9179771;19;20054;-62
2022/03/05 08:26:25;;;;;;;37.22;14.52;;;2.50;67.40;;;;;;9184161;19;20022;-61
2022/03/05 08:29:30;;;;;;;39.25;15.52;;;2.60;67.30;;;;;;9174965;19;20010;-61
2022/03/05 08:32:35;;;;;;;34.42;14.90;;;2.80;67.30;;;;;;9178844;19;20019;-60
2022/03/05 08:35:43;;;;;;;35.58;15.70;;;3.00;67.40;;;;;;9183693;19;20475;-59
2022/03/05 08:38:48;;;;;;;36.30;15.65;;;3.10;67.30;;;;;;9184082;19;20010;-64
2022/03/05 08:41:53;;;;;;;39.45;15.45;;;3.30;67.30;;;;;;9184528;19;20022;-60
2022/03/05 08:44:58;;;;;;;38.80;15.20;;;3.50;67.30;;;;;;9185398;19;20022;-61
2022/03/05 08:48:03;;;;;;;32.25;14.48;;;3.60;67.10;;;;;;9184695;19;20010;-61
2022/03/05 08:51:11;;;;;;;33.45;13.85;;;3.80;67.20;;;;;;9181549;19;20022;-60
2022/03/05 08:54:17;;;;;;;34.80;14.52;;;3.90;67.10;;;;;;9182861;19;20015;-61
2022/03/05 08:57:22;;;;;;;36.00;15.40;;;4.10;67.10;;;;;;9182886;19;20025;-60
2022/03/05 09:00:28;;;;;;;36.75;16.02;;;4.30;67.00;;;;;;9181443;19;20451;-60
2022/03/05 09:03:33;;;;;;;33.80;14.88;;;4.40;67.00;;;;;;9185520;19;20029;-60
2022/03/05 09:06:41;;;;;;;41.28;15.70;;;4.60;67.00;;;;;;9183900;19;20015;-60
2022/03/05 09:09:46;;;;;;;30.92;14.65;;;4.80;66.90;;;;;;9183297;19;20018;-61
2022/03/05 09:12:51;;;;;;;39.65;16.08;;;5.00;66.90;;;;;;9180138;19;20023;-61
2022/03/05 09:15:56;;;;;;;38.50;16.17;;;5.10;66.80;;;;;;9183059;19;20359;-62
2022/03/05 09:19:01;;;;;;;34.72;16.15;;;5.30;66.60;;;;;;9184332;19;20013;-60
2022/03/05 09:22:10;;;;;;;40.80;15.43;;;5.50;66.60;;;;;;9184673;19;20499;-60
2022/03/05 09:25:15;;;;;;;39.17;16.77;;;5.60;66.50;;;;;;9185602;19;20014;-61
2022/03/05 09:28:20;;;;;;;39.90;16.30;;;5.70;66.40;;;;;;9180067;19;20022;-60
2022/03/05 09:31:25;;;;;;;38.20;16.23;;;5.90;66.40;;;;;;9179124;19;20380;-61
2022/03/05 09:34:30;;;;;;;37.10;15.35;;;6.10;66.30;;;;;;9179053;19;20022;-59
2022/03/05 09:37:39;;;;;;;34.85;16.60;;;6.30;66.20;;;;;;9181245;19;20471;-61
2022/03/05 09:40:48;;;;;;;35.67;16.45;;;6.40;66.10;;;;;;9178863;19;20459;-60
2022/03/05 09:43:53;;;;;;;35.90;16.80;;;6.60;66.00;;;;;;9179039;19;20483;-60
2022/03/05 09:46:59;;;;;;;35.42;16.63;;;6.70;66.00;;;;;;9180843;19;20011;-60
2022/03/05 09:50:07;;;;;;;41.15;16.27;;;6.90;65.90;;;;;;9180800;19;20014;-59
2022/03/05 09:53:17;;;;;;;39.10;15.98;;;7.10;65.80;;;;;;9177940;19;20022;-61
2022/03/05 09:56:22;;;;;;;36.15;17.33;;;7.20;66.30;;;;;;9180544;19;20751;-59
2022/03/05 09:59:27;;;;;;;37.25;15.95;;;7.40;65.60;;;;;;9178614;19;20033;-61
2022/03/05 10:02:33;;;;;;;38.78;16.65;;;7.50;65.40;;;;;;9179037;19;20026;-60
2022/03/05 10:05:38;;;;;;;38.20;16.67;;;7.70;65.40;;;;;;9180509;19;20052;-62
2022/03/05 10:08:47;;;;;;;37.00;16.70;;;7.80;65.20;;;;;;9179802;19;20380;-61
2022/03/05 10:11:52;;;;;;;38.58;16.30;;;8.00;65.10;;;;;;9179061;19;20026;-60
2022/03/05 10:15:10;;;;;;;35.15;16.17;;;8.10;65.00;;;;;;9179969;19;20022;-60
2022/03/05 10:18:15;;;;;;;;;;;8.30;64.80;;;;;;9179542;19;20014;-60
2022/03/05 10:21:21;;;;;;;36.97;15.23;;;8.40;64.90;;;;;;9177851;19;20455;-62
2022/03/05 10:24:36;;;;;;;39.10;16.23;;;8.50;64.80;;;;;;9178694;19;20483;-60
2022/03/05 10:27:45;;;;;;;38.28;16.85;;;8.70;64.60;;;;;;9175391;19;20022;-62
2022/03/05 10:30:52;;;;;;;35.45;16.27;;;8.80;64.40;;;;;;9177698;19;20018;-60
2022/03/05 10:33:59;;;;;;;36.45;17.58;;;8.90;64.40;;;;;;9180337;19;20011;-62
2022/03/05 10:37:06;;;;;;;35.65;16.27;;;9.00;64.20;;;;;;9179344;19;20443;-59
2022/03/05 10:40:18;;;;;;;36.97;15.90;;;9.20;64.10;;;;;;9179585;19;20044;-60
2022/03/05 10:43:23;;;;;;;35.97;16.30;;;9.30;64.00;;;;;;9178555;19;20014;-61
2022/03/05 10:46:39;;;;;;;37.10;16.77;;;9.40;63.90;;;;;;9174906;19;20014;-59
2022/03/05 10:49:44;;;;;;;38.80;17.95;;;9.60;63.60;;;;;;9177782;19;20018;-60
2022/03/05 10:52:51;;;;;;;38.58;16.77;;;9.70;63.60;;;;;;9177840;19;20012;-59
2022/03/05 10:55:58;;;;;;;37.25;16.90;;;9.80;63.50;;;;;;9176814;19;20483;-59
2022/03/05 10:59:07;;;;;;;43.03;17.73;;;9.90;63.20;;;;;;9174185;19;20011;-59
2022/03/05 11:02:13;;;;;;;39.08;16.52;;;9.90;63.10;;;;;;9176936;19;20011;-60
2022/03/05 11:05:20;;;;;;;39.22;17.08;;;10.00;63.00;;;;;;9177439;19;20018;-60
2022/03/05 11:08:27;;;;;;;40.10;17.25;;;10.10;63.00;;;;;;9175895;19;20023;-62
2022/03/05 11:11:39;;;;;;;37.75;17.48;;;10.20;62.80;;;;;;9176483;19;20022;-61
2022/03/05 11:14:47;;;;;;;38.35;16.80;;;10.30;62.60;;;;;;9176481;19;20011;-63
2022/03/05 11:17:52;;;;;;;37.20;18.00;;;10.30;62.60;;;;;;9175175;19;20014;-60
2022/03/05 11:20:57;;;;;;;37.20;17.13;;;10.40;62.50;;;;;;9175891;19;20022;-63
2022/03/05 11:24:02;;;;;;;35.50;17.38;;;10.40;62.30;;;;;;9175636;19;20045;-59
2022/03/05 11:27:15;;;;;;;37.65;17.40;;;10.50;62.30;;;;;;9173786;19;20018;-60
2022/03/05 11:30:21;;;;;;;38.95;18.13;;;10.60;62.00;;;;;;9171048;19;20019;-60
2022/03/05 11:33:38;;;;;;;38.22;16.83;;;10.70;62.10;;;;;;9174885;19;20022;-61
2022/03/05 11:36:45;;;;;;;39.05;17.60;;;10.70;61.70;;;;;;9174797;19;20026;-62
2022/03/05 11:39:49;;;;;;;33.25;16.45;;;10.70;61.70;;;;;;9174527;19;20022;-61
2022/03/05 11:43:17;;;;;;;38.45;17.73;;;10.80;61.70;;;;;;9177046;19;20539;-61
2022/03/05 11:46:27;;;;;;;35.83;17.63;;;10.90;61.30;;;;;;9175334;19;20065;-62
2022/03/05 11:50:19;;;;;;;41.15;17.15;;;10.90;61.50;;;;;;9174820;19;20086;-60
2022/03/05 11:53:25;;;;;;;36.20;16.92;;;11.00;61.10;;;;;;9176687;19;20641;-60
2022/03/05 11:56:30;;;;;;;36.72;17.30;;;11.00;61.40;;;;;;9173400;19;20015;-61
2022/03/05 11:59:39;;;;;;;39.92;17.75;;;11.00;61.40;;;;;;9170484;19;20023;-60
2022/03/05 12:02:45;;;;;;;34.05;16.38;;;11.00;61.10;;;;;;9175053;19;20405;-60
2022/03/05 12:05:54;;;;;;;34.30;16.27;;;11.10;61.10;;;;;;9176577;19;20577;-59
2022/03/05 12:08:59;;;;;;;35.08;16.83;;;11.20;60.90;;;;;;9172255;19;20022;-60
2022/03/05 12:12:05;;;;;;;38.72;16.83;;;11.30;60.90;;;;;;9174530;19;20026;-61
2022/03/05 12:15:16;;;;;;;35.05;16.80;;;11.30;60.80;;;;;;9173546;19;20033;-61
2022/03/05 12:18:22;;;;;;;31.67;16.08;;;11.40;60.50;;;;;;9172744;19;20014;-61
2022/03/05 12:21:28;;;;;;;38.53;16.30;;;11.40;60.70;;;;;;9167856;19;20375;-61
2022/03/05 12:24:33;;;;;;;35.92;16.40;;;11.50;60.50;;;;;;9167664;19;20086;-60
2022/03/05 12:27:40;;;;;;;32.10;16.40;;;11.50;60.30;;;;;;9166472;19;20325;-62
2022/03/05 12:30:50;;;;;;;34.60;16.75;;;11.60;60.20;;;;;;9174528;19;20810;-62
2022/03/05 12:33:55;;;;;;;33.38;14.70;;;11.60;59.90;;;;;;9172290;19;20018;-61
2022/03/05 12:37:00;;;;;;;35.67;15.52;;;11.70;60.00;;;;;;9174183;19;20026;-62
2022/03/05 12:40:07;;;;;;;32.13;15.38;;;11.70;59.90;;;;;;9174394;19;20372;-61
2022/03/05 12:43:12;;;;;;;35.65;16.20;;;11.70;59.70;;;;;;9176063;19;20038;-60
2022/03/05 12:46:20;;;;;;;32.63;15.85;;;11.80;59.70;;;;;;9171855;19;20059;-64
2022/03/05 12:49:26;;;;;;;37.00;17.15;;;11.80;59.50;;;;;;9173133;19;20021;-66
2022/03/05 12:52:31;;;;;;;36.25;16.92;;;11.80;59.50;;;;;;9175794;19;20014;-66
2022/03/05 12:55:39;;;;;;;37.15;16.48;;;11.80;59.40;;;;;;9175620;19;20019;-65
2022/03/05 12:58:44;;;;;;;31.10;14.60;;;11.80;59.30;;;;;;9177837;19;20495;-68
2022/03/05 13:01:52;;;;;;;35.70;16.02;;;11.70;59.10;;;;;;9178866;19;20023;-67
2022/03/05 13:04:57;;;;;;;35.15;15.88;;;11.60;58.90;;;;;;9177445;19;20017;-64
2022/03/05 13:08:02;;;;;;;31.70;15.43;;;11.50;59.00;;;;;;9172981;19;20035;-65
2022/03/05 13:11:09;;;;;;;34.63;16.48;;;11.40;58.90;;;;;;9179893;19;20015;-65
2022/03/05 13:14:14;;;;;;;31.80;15.27;;;11.40;58.90;;;;;;9182355;19;20056;-64
2022/03/05 13:17:24;;;;;;;32.78;16.17;;;11.30;58.90;;;;;;9185650;19;20014;-64
2022/03/05 13:20:32;;;;;;;36.05;17.17;;;11.20;58.80;;;;;;9184909;19;20018;-65
2022/03/05 13:23:40;;;;;;;34.47;15.27;;;11.10;58.90;;;;;;9184324;19;20022;-66
2022/03/05 13:26:48;;;;;;;35.30;16.17;;;11.00;58.90;;;;;;9188045;19;20023;-65
2022/03/05 13:29:53;;;;;;;33.38;14.88;;;10.90;58.90;;;;;;9178501;19;20014;-65
2022/03/05 13:33:01;;;;;;;29.67;14.55;;;10.80;58.80;;;;;;9178938;19;20361;-65
2022/03/05 13:36:14;;;;;;;31.58;15.27;;;10.70;58.70;;;;;;9180926;19;20047;-64
2022/03/05 13:39:21;;;;;;;34.67;16.00;;;10.60;58.70;;;;;;9180362;19;20018;-64
2022/03/05 13:42:26;;;;;;;30.98;15.35;;;10.60;58.80;;;;;;9181405;19;20059;-64
2022/03/05 13:45:31;;;;;;;35.47;15.23;;;10.50;58.70;;;;;;9184063;19;20049;-66
2022/03/05 13:48:48;;;;;;;33.33;15.05;;;10.40;58.70;;;;;;9184161;19;20017;-65
2022/03/05 13:51:55;;;;;;;33.05;15.57;;;10.30;58.50;;;;;;9182697;19;20022;-65
2022/03/05 13:55:17;;;;;;;34.00;15.80;;;10.20;58.70;;;;;;9180959;19;20030;-64
2022/03/05 13:58:23;;;;;;;35.30;14.98;;;10.10;59.00;;;;;;9180883;19;20015;-64
2022/03/05 14:01:34;;;;;;;34.75;15.85;;;10.10;58.70;;;;;;9176348;19;20471;-65
2022/03/05 14:05:00;;;;;;;33.28;14.98;;;10.00;58.60;;;;;;9177441;19;20018;-66
2022/03/05 14:08:06;;;;;;;32.70;16.15;;;9.90;58.50;;;;;;9175129;19;20482;-64
2022/03/05 14:11:11;;;;;;;29.98;14.57;;;9.90;58.80;;;;;;9181161;19;20067;-66
2022/03/05 14:14:16;;;;;;;33.42;15.32;;;9.80;58.70;;;;;;9181385;19;20376;-64
2022/03/05 14:17:27;;;;;;;34.55;14.75;;;9.80;58.70;;;;;;9181999;19;20629;-63
2022/03/05 14:20:43;;;;;;;36.20;14.30;;;9.80;58.70;;;;;;9177095;19;20010;-63
2022/03/05 14:23:52;;;;;;;30.63;13.68;;;9.70;58.60;;;;;;9178537;19;20010;-64
2022/03/05 14:26:57;;;;;;;31.20;15.27;;;9.70;58.70;;;;;;9179747;19;20062;-62
2022/03/05 14:30:02;;;;;;;30.63;15.13;;;9.70;58.80;;;;;;9175449;19;20021;-64
2022/03/05 14:33:07;;;;;;;29.70;14.65;;;9.70;58.70;;;;;;9181057;19;20022;-64
2022/03/05 14:36:15;;;;;;;32.35;15.30;;;9.70;58.70;;;;;;9177180;19;20476;-64
2022/03/05 14:39:20;;;;;;;33.55;14.63;;;9.70;58.60;;;;;;9178066;19;20054;-64
2022/03/05 14:42:26;;;;;;;27.52;14.60;;;9.70;58.70;;;;;;9178217;19;20019;-64
2022/03/05 14:45:32;;;;;;;35.85;16.13;;;9.60;58.60;;;;;;9176897;19;20056;-65
2022/03/05 14:48:37;;;;;;;31.27;15.30;;;9.70;58.60;;;;;;9176542;19;20029;-63
2022/03/05 14:51:47;;;;;;;32.80;15.65;;;9.70;58.60;;;;;;9178391;19;20137;-64
2022/03/05 14:54:53;;;;;;;29.35;14.32;;;9.70;58.50;;;;;;9176654;19;20042;-64
2022/03/05 14:58:01;;;;;;;29.85;13.93;;;9.70;58.40;;;;;;9170870;19;20367;-62
2022/03/05 15:01:06;;;;;;;33.63;17.08;;;9.70;58.40;;;;;;9169378;19;20014;-59
2022/03/05 15:04:11;;;;;;;31.08;13.48;;;9.80;58.40;;;;;;9177673;19;20022;-60
2022/03/05 15:07:19;;;;;;;33.53;14.75;;;9.80;58.30;;;;;;9175534;19;20141;-60
2022/03/05 15:10:24;;;;;;;31.05;14.15;;;9.80;58.10;;;;;;9175736;19;20014;-60
2022/03/05 15:13:29;;;;;;;29.83;13.35;;;9.80;58.10;;;;;;9175958;19;20030;-59
2022/03/05 15:16:39;;;;;;;27.15;13.60;;;9.80;58.00;;;;;;9175034;19;20017;-61
2022/03/05 15:19:44;;;;;;;33.72;14.15;;;9.80;58.00;;;;;;9178512;19;20066;-61
2022/03/05 15:22:51;;;;;;;32.53;14.85;;;9.80;57.90;;;;;;9179819;19;20029;-62
2022/03/05 15:25:56;;;;;;;29.08;14.70;;;9.90;57.90;;;;;;9181229;19;20015;-59
2022/03/05 15:29:01;;;;;;;32.75;15.50;;;9.90;57.90;;;;;;9175908;19;20007;-60
2022/03/05 15:32:07;;;;;;;30.23;14.00;;;9.90;57.80;;;;;;9172689;19;20036;-60
2022/03/05 15:35:13;;;;;;;31.90;14.50;;;9.80;57.70;;;;;;9176636;19;20018;-59
2022/03/05 15:38:21;;;;;;;28.08;14.23;;;9.90;57.80;;;;;;9176491;19;20060;-60
2022/03/05 15:41:26;;;;;;;30.50;15.27;;;9.80;57.60;;;;;;9177246;19;20463;-62
2022/03/05 15:44:31;;;;;;;34.03;15.70;;;9.80;57.60;;;;;;9177094;19;20396;-60
2022/03/05 15:47:36;;;;;;;28.45;14.68;;;9.80;57.60;;;;;;9179602;19;20022;-61
2022/03/05 15:50:41;;;;;;;30.05;13.50;;;9.80;57.60;;;;;;9177530;19;20025;-60
2022/03/05 15:53:49;;;;;;;32.60;14.38;;;9.70;57.50;;;;;;9177090;19;20034;-61
2022/03/05 15:56:54;;;;;;;29.13;14.75;;;9.70;57.90;;;;;;9174658;19;20048;-61
2022/03/05 15:59:59;;;;;;;28.80;14.38;;;9.70;57.40;;;;;;9170619;19;20362;-60